Wetterdaten: Freitag, 09.07.2010
Datum Zeit Temp. A. Feuchte A. Luftdruck Regen Wind Richtung Richtung Sonnenschein UV Solar Windben
09.07.2010 00:00 22,0 C 64 % 1017,1 hPa 0,0 mm 0,0 km/h (0 Bft) W-NW 292 0 min 0 UV-I 0 W/m 1,6 km/h (1 Bft)
09.07.2010 00:10 21,8 C 64 % 1017,0 hPa 0,0 mm 0,0 km/h (0 Bft) N 0 0 min 0 UV-I 0 W/m 0,0 km/h (0 Bft)
09.07.2010 00:20 21,6 C 65 % 1017,1 hPa 0,0 mm 0,0 km/h (0 Bft) N 0 0 min 0 UV-I 0 W/m 0,0 km/h (0 Bft)
09.07.2010 00:30 21,3 C 67 % 1017,1 hPa 0,0 mm 0,0 km/h (0 Bft) W-NW 292 0 min 0 UV-I 0 W/m 1,6 km/h (1 Bft)
09.07.2010 00:40 21,2 C 68 % 1017,1 hPa 0,0 mm 0,0 km/h (0 Bft) N 0 0 min 0 UV-I 0 W/m 0,0 km/h (0 Bft)
09.07.2010 00:50 21,1 C 68 % 1017,0 hPa 0,0 mm 0,0 km/h (0 Bft) N 0 0 min 0 UV-I 0 W/m 0,0 km/h (0 Bft)
09.07.2010 01:00 20,7 C 70 % 1017,1 hPa 0,0 mm 0,0 km/h (0 Bft) N 0 0 min 0 UV-I 0 W/m 0,0 km/h (0 Bft)
09.07.2010 01:10 20,3 C 71 % 1017,1 hPa 0,0 mm 0,0 km/h (0 Bft) N 0 0 min 0 UV-I 0 W/m 0,0 km/h (0 Bft)
09.07.2010 01:20 20,2 C 73 % 1017,1 hPa 0,0 mm 0,0 km/h (0 Bft) N 0 0 min 0 UV-I 0 W/m 0,0 km/h (0 Bft)
09.07.2010 01:30 19,8 C 74 % 1017,0 hPa 0,0 mm 0,0 km/h (0 Bft) N 0 0 min 0 UV-I 0 W/m 0,0 km/h (0 Bft)
09.07.2010 01:40 19,8 C 74 % 1017,0 hPa 0,0 mm 0,0 km/h (0 Bft) N 0 0 min 0 UV-I 0 W/m 0,0 km/h (0 Bft)
09.07.2010 01:50 19,7 C 75 % 1017,0 hPa 0,0 mm 0,0 km/h (0 Bft) N 0 0 min 0 UV-I 0 W/m 0,0 km/h (0 Bft)
09.07.2010 02:00 19,3 C 76 % 1017,0 hPa 0,0 mm 0,0 km/h (0 Bft) N 0 0 min 0 UV-I 0 W/m 0,0 km/h (0 Bft)
09.07.2010 02:10 18,9 C 77 % 1017,1 hPa 0,0 mm 0,0 km/h (0 Bft) N 0 0 min 0 UV-I 0 W/m 0,0 km/h (0 Bft)
09.07.2010 02:20 19,1 C 77 % 1017,1 hPa 0,0 mm 0,0 km/h (0 Bft) N 0 0 min 0 UV-I 0 W/m 0,0 km/h (0 Bft)
09.07.2010 02:30 19,0 C 77 % 1017,2 hPa 0,0 mm 0,0 km/h (0 Bft) N 0 0 min 0 UV-I 0 W/m 0,0 km/h (0 Bft)
09.07.2010 02:40 18,9 C 77 % 1017,3 hPa 0,0 mm 0,0 km/h (0 Bft) N 0 0 min 0 UV-I 0 W/m 0,0 km/h (0 Bft)
09.07.2010 02:50 18,8 C 77 % 1017,4 hPa 0,0 mm 0,0 km/h (0 Bft) N 0 0 min 0 UV-I 0 W/m 0,0 km/h (0 Bft)
09.07.2010 03:00 18,4 C 79 % 1017,4 hPa 0,0 mm 0,0 km/h (0 Bft) N 0 0 min 0 UV-I 0 W/m 0,0 km/h (0 Bft)
09.07.2010 03:10 18,5 C 79 % 1017,5 hPa 0,0 mm 0,0 km/h (0 Bft) N 0 0 min 0 UV-I 0 W/m 0,0 km/h (0 Bft)
09.07.2010 03:20 18,4 C 79 % 1017,4 hPa 0,0 mm 0,0 km/h (0 Bft) N 0 0 min 0 UV-I 0 W/m 0,0 km/h (0 Bft)
09.07.2010 03:30 18,2 C 80 % 1017,5 hPa 0,0 mm 0,0 km/h (0 Bft) N 0 0 min 0 UV-I 0 W/m 0,0 km/h (0 Bft)
09.07.2010 03:40 18,0 C 80 % 1017,6 hPa 0,0 mm 0,0 km/h (0 Bft) N 0 0 min 0 UV-I 0 W/m 0,0 km/h (0 Bft)
09.07.2010 03:50 17,8 C 81 % 1017,5 hPa 0,0 mm 0,0 km/h (0 Bft) N 0 0 min 0 UV-I 0 W/m 0,0 km/h (0 Bft)
09.07.2010 04:00 17,7 C 80 % 1017,5 hPa 0,0 mm 0,0 km/h (0 Bft) W-NW 292 0 min 0 UV-I 0 W/m 1,6 km/h (1 Bft)
09.07.2010 04:10 17,7 C 80 % 1017,5 hPa 0,0 mm 0,0 km/h (0 Bft) W-NW 292 0 min 0 UV-I 0 W/m 1,6 km/h (1 Bft)
09.07.2010 04:20 17,7 C 79 % 1017,4 hPa 0,0 mm 0,0 km/h (0 Bft) W-NW 292 0 min 0 UV-I 0 W/m 1,6 km/h (1 Bft)
09.07.2010 04:30 17,8 C 78 % 1017,4 hPa 0,0 mm 0,0 km/h (0 Bft) W-NW 292 0 min 0 UV-I 0 W/m 1,6 km/h (1 Bft)
09.07.2010 04:40 17,8 C 77 % 1017,4 hPa 0,0 mm 0,0 km/h (0 Bft) N 0 0 min 0 UV-I 0 W/m 0,0 km/h (0 Bft)
09.07.2010 04:50 17,7 C 77 % 1017,4 hPa 0,0 mm 0,0 km/h (0 Bft) N 0 0 min 0 UV-I 0 W/m 0,0 km/h (0 Bft)
09.07.2010 05:00 17,4 C 78 % 1017,3 hPa 0,0 mm 0,0 km/h (0 Bft) N 0 0 min 0 UV-I 0 W/m 0,0 km/h (0 Bft)
09.07.2010 05:10 17,3 C 79 % 1017,3 hPa 0,0 mm 0,0 km/h (0 Bft) W-NW 292 0 min 0 UV-I 0 W/m 1,6 km/h (1 Bft)
09.07.2010 05:20 17,3 C 79 % 1017,3 hPa 0,0 mm 0,0 km/h (0 Bft) W-NW 292 0 min 0 UV-I 0 W/m 1,6 km/h (1 Bft)
09.07.2010 05:30 17,2 C 80 % 1017,1 hPa 0,0 mm 0,0 km/h (0 Bft) W-NW 292 0 min 0 UV-I 5 W/m 1,6 km/h (1 Bft)
09.07.2010 05:40 17,2 C 80 % 1017,1 hPa 0,0 mm 0,0 km/h (0 Bft) N 0 0 min 0 UV-I 9 W/m 0,0 km/h (0 Bft)
09.07.2010 05:50 17,1 C 81 % 1017,1 hPa 0,0 mm 0,0 km/h (0 Bft) W-NW 292 0 min 0 UV-I 9 W/m 1,6 km/h (1 Bft)
09.07.2010 06:00 17,2 C 80 % 1017,0 hPa 0,0 mm 0,0 km/h (0 Bft) N 0 0 min 0 UV-I 12 W/m 0,0 km/h (0 Bft)
09.07.2010 06:10 17,4 C 79 % 1017,1 hPa 0,0 mm 0,0 km/h (0 Bft) N 0 0 min 0 UV-I 18 W/m 0,0 km/h (0 Bft)
09.07.2010 06:20 17,6 C 79 % 1017,1 hPa 0,0 mm 0,0 km/h (0 Bft) W-NW 292 0 min 0 UV-I 26 W/m 1,6 km/h (1 Bft)
09.07.2010 06:30 17,9 C 78 % 1017,1 hPa 0,0 mm 0,0 km/h (0 Bft) W-NW 292 10 min 0 UV-I 83 W/m 3,2 km/h (1 Bft)
09.07.2010 06:40 18,4 C 77 % 1017,2 hPa 0,0 mm 0,0 km/h (0 Bft) W-NW 292 10 min 0 UV-I 98 W/m 3,2 km/h (1 Bft)
09.07.2010 06:50 18,8 C 75 % 1017,1 hPa 0,0 mm 0,0 km/h (0 Bft) W-NW 292 0 min 0 UV-I 97 W/m 1,6 km/h (1 Bft)
09.07.2010 07:00 19,3 C 73 % 1017,2 hPa 0,0 mm 0,0 km/h (0 Bft) N 0 10 min 1 UV-I 139 W/m 0,0 km/h (0 Bft)
09.07.2010 07:10 19,9 C 74 % 1017,2 hPa 0,0 mm 0,0 km/h (0 Bft) W-NW 292 10 min 1 UV-I 163 W/m 1,6 km/h (1 Bft)
09.07.2010 07:20 20,4 C 71 % 1017,3 hPa 0,0 mm 0,0 km/h (0 Bft) W-NW 292 10 min 1 UV-I 188 W/m 1,6 km/h (1 Bft)
09.07.2010 07:30 21,2 C 67 % 1017,3 hPa 0,0 mm 0,0 km/h (0 Bft) N 0 10 min 1 UV-I 211 W/m 0,0 km/h (0 Bft)
09.07.2010 07:40 21,7 C 65 % 1017,4 hPa 0,0 mm 0,0 km/h (0 Bft) W-NW 292 10 min 1 UV-I 237 W/m 1,6 km/h (1 Bft)
09.07.2010 07:50 22,1 C 66 % 1017,4 hPa 0,0 mm 0,0 km/h (0 Bft) N 0 10 min 1 UV-I 265 W/m 0,0 km/h (0 Bft)
09.07.2010 08:00 22,6 C 66 % 1017,1 hPa 0,0 mm 0,0 km/h (0 Bft) W-NW 292 10 min 1 UV-I 290 W/m 3,2 km/h (1 Bft)
09.07.2010 08:10 23,2 C 63 % 1017,1 hPa 0,0 mm 0,0 km/h (0 Bft) W-NW 292 10 min 1 UV-I 318 W/m 3,2 km/h (1 Bft)
09.07.2010 08:20 23,9 C 62 % 1017,0 hPa 0,0 mm 0,0 km/h (0 Bft) W-NW 292 10 min 2 UV-I 343 W/m 3,2 km/h (1 Bft)
09.07.2010 08:30 24,3 C 62 % 1017,1 hPa 0,0 mm 0,0 km/h (0 Bft) W-NW 292 10 min 2 UV-I 371 W/m 3,2 km/h (1 Bft)
09.07.2010 08:40 25,0 C 59 % 1017,1 hPa 0,0 mm 0,0 km/h (0 Bft) W-NW 292 10 min 2 UV-I 397 W/m 4,8 km/h (1 Bft)
09.07.2010 08:50 25,7 C 57 % 1017,0 hPa 0,0 mm 0,0 km/h (0 Bft) W-NW 292 10 min 2 UV-I 420 W/m 3,2 km/h (1 Bft)
09.07.2010 09:00 26,4 C 54 % 1017,1 hPa 0,0 mm 0,0 km/h (0 Bft) W-NW 292 10 min 2 UV-I 448 W/m 4,8 km/h (1 Bft)
09.07.2010 09:10 27,3 C 50 % 1017,0 hPa 0,0 mm 1,6 km/h (1 Bft) W-NW 292 10 min 2 UV-I 471 W/m 6,4 km/h (2 Bft)
09.07.2010 09:20 27,7 C 48 % 1017,1 hPa 0,0 mm 1,6 km/h (1 Bft) W 270 10 min 3 UV-I 499 W/m 9,7 km/h (2 Bft)
09.07.2010 09:30 28,1 C 47 % 1017,2 hPa 0,0 mm 1,6 km/h (1 Bft) W 270 10 min 3 UV-I 524 W/m 6,4 km/h (2 Bft)
09.07.2010 09:40 28,5 C 48 % 1017,2 hPa 0,0 mm 0,0 km/h (0 Bft) W 270 10 min 3 UV-I 550 W/m 4,8 km/h (1 Bft)
09.07.2010 09:50 28,8 C 49 % 1017,2 hPa 0,0 mm 1,6 km/h (1 Bft) W-SW 247 10 min 3 UV-I 573 W/m 9,7 km/h (2 Bft)
09.07.2010 10:00 29,1 C 49 % 1017,2 hPa 0,0 mm 0,0 km/h (0 Bft) W-SW 247 10 min 4 UV-I 598 W/m 3,2 km/h (1 Bft)
09.07.2010 10:10 29,6 C 45 % 1017,2 hPa 0,0 mm 1,6 km/h (1 Bft) W-SW 247 10 min 4 UV-I 624 W/m 6,4 km/h (2 Bft)
09.07.2010 10:20 29,8 C 42 % 1017,1 hPa 0,0 mm 1,6 km/h (1 Bft) W-SW 247 10 min 4 UV-I 643 W/m 9,7 km/h (2 Bft)
09.07.2010 10:30 30,2 C 44 % 1017,1 hPa 0,0 mm 3,2 km/h (1 Bft) W-SW 247 10 min 4 UV-I 664 W/m 11,3 km/h (2 Bft)
09.07.2010 10:40 30,4 C 42 % 1017,1 hPa 0,0 mm 3,2 km/h (1 Bft) W-SW 247 10 min 5 UV-I 687 W/m 9,7 km/h (2 Bft)
09.07.2010 10:50 30,9 C 40 % 1017,1 hPa 0,0 mm 1,6 km/h (1 Bft) SW 225 10 min 5 UV-I 703 W/m 8,0 km/h (2 Bft)
09.07.2010 11:00 31,3 C 37 % 1017,1 hPa 0,0 mm 1,6 km/h (1 Bft) SW 225 10 min 5 UV-I 726 W/m 9,7 km/h (2 Bft)
09.07.2010 11:10 31,3 C 40 % 1017,1 hPa 0,0 mm 1,6 km/h (1 Bft) W-SW 247 10 min 5 UV-I 742 W/m 8,0 km/h (2 Bft)
09.07.2010 11:20 31,4 C 41 % 1017,1 hPa 0,0 mm 1,6 km/h (1 Bft) W-SW 247 10 min 6 UV-I 759 W/m 9,7 km/h (2 Bft)
09.07.2010 11:30 31,9 C 40 % 1016,8 hPa 0,0 mm 3,2 km/h (1 Bft) W-SW 247 10 min 6 UV-I 772 W/m 11,3 km/h (2 Bft)
09.07.2010 11:40 31,7 C 36 % 1016,8 hPa 0,0 mm 1,6 km/h (1 Bft) S 180 10 min 6 UV-I 791 W/m 8,0 km/h (2 Bft)
09.07.2010 11:50 31,9 C 36 % 1016,7 hPa 0,0 mm 0,0 km/h (0 Bft) SW 225 10 min 6 UV-I 814 W/m 6,4 km/h (2 Bft)
09.07.2010 12:00 32,7 C 35 % 1016,6 hPa 0,0 mm 1,6 km/h (1 Bft) SW 225 10 min 6 UV-I 826 W/m 11,3 km/h (2 Bft)
09.07.2010 12:10 32,9 C 35 % 1016,5 hPa 0,0 mm 1,6 km/h (1 Bft) S 180 10 min 7 UV-I 838 W/m 6,4 km/h (2 Bft)
09.07.2010 12:20 32,6 C 34 % 1016,4 hPa 0,0 mm 1,6 km/h (1 Bft) S 180 10 min 7 UV-I 846 W/m 8,0 km/h (2 Bft)
09.07.2010 12:30 32,7 C 35 % 1016,2 hPa 0,0 mm 1,6 km/h (1 Bft) W-SW 247 10 min 7 UV-I 853 W/m 8,0 km/h (2 Bft)
09.07.2010 12:40 33,1 C 33 % 1016,3 hPa 0,0 mm 1,6 km/h (1 Bft) W 270 10 min 7 UV-I 861 W/m 9,7 km/h (2 Bft)
09.07.2010 12:50 32,9 C 33 % 1016,3 hPa 0,0 mm 1,6 km/h (1 Bft) W-NW 292 10 min 7 UV-I 868 W/m 8,0 km/h (2 Bft)
09.07.2010 13:00 34,0 C 35 % 1016,1 hPa 0,0 mm 1,6 km/h (1 Bft) W 270 10 min 7 UV-I 877 W/m 6,4 km/h (2 Bft)
09.07.2010 13:10 34,3 C 32 % 1016,1 hPa 0,0 mm 3,2 km/h (1 Bft) W 270 10 min 7 UV-I 877 W/m 9,7 km/h (2 Bft)
09.07.2010 13:20 33,8 C 30 % 1016,1 hPa 0,0 mm 3,2 km/h (1 Bft) NW 315 10 min 7 UV-I 882 W/m 16,1 km/h (3 Bft)
09.07.2010 13:30 33,4 C 32 % 1015,9 hPa 0,0 mm 4,8 km/h (1 Bft) W-SW 247 10 min 7 UV-I 879 W/m 14,5 km/h (3 Bft)
09.07.2010 13:40 33,3 C 32 % 1015,9 hPa 0,0 mm 4,8 km/h (1 Bft) W 270 10 min 7 UV-I 882 W/m 17,7 km/h (3 Bft)
09.07.2010 13:50 33,7 C 32 % 1015,8 hPa 0,0 mm 3,2 km/h (1 Bft) W 270 10 min 7 UV-I 884 W/m 11,3 km/h (2 Bft)
09.07.2010 14:00 34,4 C 32 % 1015,8 hPa 0,0 mm 1,6 km/h (1 Bft) W 270 10 min 7 UV-I 884 W/m 9,7 km/h (2 Bft)
09.07.2010 14:10 34,9 C 29 % 1015,8 hPa 0,0 mm 3,2 km/h (1 Bft) SW 225 10 min 7 UV-I 893 W/m 11,3 km/h (2 Bft)
09.07.2010 14:20 35,8 C 32 % 1015,7 hPa 0,0 mm 3,2 km/h (1 Bft) S 180 10 min 7 UV-I 881 W/m 8,0 km/h (2 Bft)
09.07.2010 14:30 34,9 C 31 % 1015,7 hPa 0,0 mm 3,2 km/h (1 Bft) S-SO 157 10 min 7 UV-I 877 W/m 16,1 km/h (3 Bft)
09.07.2010 14:40 34,3 C 30 % 1015,7 hPa 0,0 mm 6,4 km/h (2 Bft) W 270 10 min 6 UV-I 865 W/m 19,3 km/h (3 Bft)
09.07.2010 14:50 35,6 C 30 % 1015,7 hPa 0,0 mm 4,8 km/h (1 Bft) S-SW 202 10 min 6 UV-I 856 W/m 16,1 km/h (3 Bft)
09.07.2010 15:00 35,8 C 33 % 1015,6 hPa 0,0 mm 3,2 km/h (1 Bft) S-SW 202 10 min 6 UV-I 877 W/m 11,3 km/h (2 Bft)
09.07.2010 15:10 34,9 C 32 % 1015,5 hPa 0,0 mm 3,2 km/h (1 Bft) S-SW 202 10 min 6 UV-I 881 W/m 12,9 km/h (3 Bft)
09.07.2010 15:20 35,4 C 31 % 1015,6 hPa 0,0 mm 1,6 km/h (1 Bft) SW 225 10 min 6 UV-I 895 W/m 9,7 km/h (2 Bft)
09.07.2010 15:30 35,2 C 31 % 1015,6 hPa 0,0 mm 4,8 km/h (1 Bft) S-SW 202 10 min 6 UV-I 875 W/m 16,1 km/h (3 Bft)
09.07.2010 15:40 35,1 C 34 % 1015,5 hPa 0,0 mm 3,2 km/h (1 Bft) S-SW 202 10 min 5 UV-I 956 W/m 11,3 km/h (2 Bft)
09.07.2010 15:50 34,2 C 34 % 1015,4 hPa 0,0 mm 3,2 km/h (1 Bft) S-SW 202 10 min 5 UV-I 949 W/m 6,4 km/h (2 Bft)
09.07.2010 16:00 35,1 C 33 % 1015,3 hPa 0,0 mm 1,9 km/h (1 Bft) S-SW 210 10 min 4 UV-I 465 W/m 8,0 km/h (2 Bft)
09.07.2010 16:10 35,6 C 33 % 1015,3 hPa 0,0 mm 3,2 km/h (1 Bft) S 180 10 min 5 UV-I 1007 W/m 11,3 km/h (2 Bft)
09.07.2010 16:20 36,5 C 34 % 1015,1 hPa 0,0 mm 4,8 km/h (1 Bft) O-SO 112 10 min 5 UV-I 863 W/m 16,1 km/h (3 Bft)
09.07.2010 16:30 36,4 C 31 % 1015,2 hPa 0,0 mm 4,8 km/h (1 Bft) SO 135 10 min 4 UV-I 819 W/m 14,5 km/h (3 Bft)
09.07.2010 16:40 36,1 C 32 % 1015,1 hPa 0,0 mm 4,8 km/h (1 Bft) S 180 10 min 4 UV-I 798 W/m 20,9 km/h (4 Bft)
09.07.2010 16:50 36,0 C 31 % 1015,1 hPa 0,0 mm 3,2 km/h (1 Bft) S 180 10 min 4 UV-I 738 W/m 11,3 km/h (2 Bft)
09.07.2010 17:00 36,1 C 34 % 1015,0 hPa 0,0 mm 4,8 km/h (1 Bft) O-SO 112 10 min 4 UV-I 714 W/m 12,9 km/h (3 Bft)
09.07.2010 17:10 35,7 C 31 % 1015,0 hPa 0,0 mm 4,8 km/h (1 Bft) S-SW 202 10 min 3 UV-I 693 W/m 17,7 km/h (3 Bft)
09.07.2010 17:20 35,3 C 31 % 1015,1 hPa 0,0 mm 3,2 km/h (1 Bft) S 180 10 min 3 UV-I 635 W/m 16,1 km/h (3 Bft)
09.07.2010 17:30 35,6 C 33 % 1015,1 hPa 0,0 mm 1,6 km/h (1 Bft) S-SO 157 10 min 3 UV-I 631 W/m 11,3 km/h (2 Bft)
09.07.2010 17:40 35,3 C 34 % 1014,9 hPa 0,0 mm 4,8 km/h (1 Bft) O-SO 112 10 min 2 UV-I 594 W/m 11,3 km/h (2 Bft)
09.07.2010 17:50 34,5 C 33 % 1014,9 hPa 0,0 mm 3,2 km/h (1 Bft) S-SW 202 10 min 2 UV-I 575 W/m 16,1 km/h (3 Bft)
09.07.2010 18:00 34,3 C 34 % 1014,8 hPa 0,0 mm 3,2 km/h (1 Bft) S 180 10 min 2 UV-I 439 W/m 11,3 km/h (2 Bft)
09.07.2010 18:10 34,5 C 33 % 1014,8 hPa 0,0 mm 3,2 km/h (1 Bft) S 180 10 min 2 UV-I 526 W/m 11,3 km/h (2 Bft)
09.07.2010 18:20 34,3 C 33 % 1014,7 hPa 0,0 mm 3,2 km/h (1 Bft) S 180 10 min 2 UV-I 494 W/m 11,3 km/h (2 Bft)
09.07.2010 18:30 33,6 C 34 % 1014,8 hPa 0,0 mm 1,6 km/h (1 Bft) S 180 0 min 1 UV-I 174 W/m 8,0 km/h (2 Bft)
09.07.2010 18:40 33,0 C 34 % 1014,7 hPa 0,0 mm 3,2 km/h (1 Bft) S 180 0 min 1 UV-I 114 W/m 9,7 km/h (2 Bft)
09.07.2010 18:50 32,8 C 36 % 1014,7 hPa 0,0 mm 1,6 km/h (1 Bft) S 180 0 min 1 UV-I 118 W/m 6,4 km/h (2 Bft)
09.07.2010 19:00 32,7 C 34 % 1014,7 hPa 0,0 mm 1,6 km/h (1 Bft) S-SW 202 0 min 1 UV-I 130 W/m 11,3 km/h (2 Bft)
09.07.2010 19:10 32,6 C 36 % 1014,8 hPa 0,0 mm 0,0 km/h (0 Bft) S-SW 202 0 min 1 UV-I 167 W/m 3,2 km/h (1 Bft)
09.07.2010 19:20 33,0 C 37 % 1014,8 hPa 0,0 mm 0,0 km/h (0 Bft) S-SW 202 10 min 1 UV-I 338 W/m 3,2 km/h (1 Bft)
09.07.2010 19:30 33,6 C 39 % 1014,8 hPa 0,0 mm 0,0 km/h (0 Bft) S-SW 202 10 min 1 UV-I 308 W/m 4,8 km/h (1 Bft)
09.07.2010 19:40 33,4 C 37 % 1015,0 hPa 0,0 mm 0,0 km/h (0 Bft) SO 135 10 min 1 UV-I 237 W/m 6,4 km/h (2 Bft)
09.07.2010 19:50 32,3 C 38 % 1014,9 hPa 0,0 mm 1,6 km/h (1 Bft) S-SO 157 0 min 1 UV-I 102 W/m 8,0 km/h (2 Bft)
09.07.2010 20:00 31,7 C 39 % 1014,8 hPa 0,0 mm 1,6 km/h (1 Bft) S-SO 157 0 min 1 UV-I 62 W/m 6,4 km/h (2 Bft)
09.07.2010 20:10 31,2 C 41 % 1015,0 hPa 0,0 mm 0,2 km/h (0 Bft) S-SO 153 0 min 0 UV-I 38 W/m 1,6 km/h (1 Bft)
09.07.2010 20:20 30,8 C 40 % 1015,1 hPa 0,0 mm 0,1 km/h (0 Bft) S-SO 154 0 min 0 UV-I 46 W/m 1,6 km/h (1 Bft)
09.07.2010 20:30 30,7 C 41 % 1015,1 hPa 0,0 mm 0,6 km/h (0 Bft) SO 143 0 min 0 UV-I 51 W/m 8,0 km/h (2 Bft)
09.07.2010 20:40 30,6 C 42 % 1015,1 hPa 0,0 mm 0,3 km/h (0 Bft) SO 144 0 min 0 UV-I 53 W/m 4,8 km/h (1 Bft)
09.07.2010 20:50 30,3 C 43 % 1015,1 hPa 0,0 mm 0,3 km/h (0 Bft) SO 144 0 min 0 UV-I 42 W/m 3,2 km/h (1 Bft)
09.07.2010 21:00 30,2 C 43 % 1015,1 hPa 0,0 mm 0,4 km/h (0 Bft) SO 146 0 min 0 UV-I 29 W/m 4,8 km/h (1 Bft)
09.07.2010 21:10 30,0 C 44 % 1015,2 hPa 0,0 mm 0,5 km/h (0 Bft) S-SO 155 0 min 0 UV-I 27 W/m 4,8 km/h (1 Bft)
09.07.2010 21:20 29,8 C 44 % 1015,2 hPa 0,0 mm 1,0 km/h (0 Bft) S 173 10 min 0 UV-I 28 W/m 6,4 km/h (2 Bft)
09.07.2010 21:30 29,7 C 44 % 1015,4 hPa 0,0 mm 1,0 km/h (0 Bft) S-SW 195 0 min 0 UV-I 17 W/m 8,0 km/h (2 Bft)
09.07.2010 21:40 29,4 C 45 % 1015,5 hPa 0,0 mm 0,0 km/h (0 Bft) S-SW 202 0 min 0 UV-I 0 W/m 8,0 km/h (2 Bft)
09.07.2010 21:50 29,2 C 46 % 1015,6 hPa 0,0 mm 0,0 km/h (0 Bft) S 180 0 min 0 UV-I 0 W/m 8,0 km/h (2 Bft)
09.07.2010 22:00 29,1 C 46 % 1015,8 hPa 0,0 mm 1,6 km/h (1 Bft) S-SW 202 0 min 0 UV-I 0 W/m 6,4 km/h (2 Bft)
09.07.2010 22:10 28,9 C 47 % 1015,8 hPa 0,0 mm 0,0 km/h (0 Bft) S-SW 202 0 min 0 UV-I 0 W/m 4,8 km/h (1 Bft)
09.07.2010 22:20 28,8 C 48 % 1015,7 hPa 0,0 mm 0,0 km/h (0 Bft) S-SW 202 0 min 0 UV-I 0 W/m 3,2 km/h (1 Bft)
09.07.2010 22:30 28,3 C 48 % 1015,8 hPa 0,0 mm 0,0 km/h (0 Bft) S-SW 202 0 min 0 UV-I 0 W/m 1,6 km/h (1 Bft)
09.07.2010 22:40 28,0 C 50 % 1015,8 hPa 0,0 mm 0,0 km/h (0 Bft) N 0 0 min 0 UV-I 0 W/m 0,0 km/h (0 Bft)
09.07.2010 22:50 27,6 C 51 % 1015,8 hPa 0,0 mm 0,0 km/h (0 Bft) S-SW 202 0 min 0 UV-I 0 W/m 3,2 km/h (1 Bft)
09.07.2010 23:00 27,2 C 52 % 1015,9 hPa 0,0 mm 0,0 km/h (0 Bft) S-SW 202 0 min 0 UV-I 0 W/m 1,6 km/h (1 Bft)
09.07.2010 23:10 27,1 C 53 % 1015,8 hPa 0,0 mm 0,0 km/h (0 Bft) N 0 0 min 0 UV-I 0 W/m 0,0 km/h (0 Bft)
09.07.2010 23:20 26,9 C 54 % 1015,9 hPa 0,0 mm 0,0 km/h (0 Bft) S-SW 202 0 min 0 UV-I 0 W/m 1,6 km/h (1 Bft)
09.07.2010 23:30 26,3 C 58 % 1015,9 hPa 0,0 mm 0,0 km/h (0 Bft) N 0 0 min 0 UV-I 0 W/m 0,0 km/h (0 Bft)
09.07.2010 23:40 25,8 C 64 % 1016,0 hPa 0,0 mm 0,0 km/h (0 Bft) N 0 0 min 0 UV-I 0 W/m 0,0 km/h (0 Bft)
09.07.2010 23:50 25,3 C 62 % 1016,2 hPa 0,0 mm 0,0 km/h (0 Bft) N 0 0 min 0 UV-I 0 W/m 0,0 km/h (0 Bft)
_ Min-Zeit 05:50 14:10 18:20 - 00:00 - - - - - 00:10
Minimum _ 17,1 C 29 % 1014,7 hPa - 0,0 km/h (0 Bft) - - - - - 0,0 km/h (0 Bft)
_ Max-Zeit 16:30 03:50 03:40 00:00 14:40 - - 06:30 12:10 16:10 16:40
Maximum _ 36,6 C 81 % 1017,6 hPa 0,0 mm 6,4 km/h
W (2 Bft)
- - 10 min 7 UV-I 1007 W/m 20,9 km/h
S (4 Bft)
Durchschnitt _ 27,3 C 52 % 1016,3 hPa #0,0 mm 1,2 km/h (1 Bft) S - #12:30 h 4 UV-I 499 W/m 5,7 km/h (1 Bft)